Edmonton, Kentucky
Current Conditions -  °F | °C
As of 3:15 PM on Friday 19 Dec 2014 (Local Time) from KGLW Reporting Station
Clear Clear  
Wind Chill: 38°   Ceiling: Unl
Heat Index: 38°   Visibility: 10mi
Dew Point: 26°   Wind: 3mph
Humidity: 61%   Direction: 340°NNW
Pressure: 30.25"   Gusts: NA
Location:  36.98°N, 85.61°W
Report Text: KGLW 192115Z AUTO 34003KT 10SM CLR 04/M03 A3025 RMK AO2 T00361034
Loading
Personal Weather Stations






























Interactive Weather Map New forecast layout! Learn more

10-Day Weather Forecast

Advertisements
Track Severe Weather on mobile